Latest Weather Observations for Scherger

IDQ60801

Issued at 11:02 pm EST Wednesday 8 December 2021 (issued every 10 minutes, with the page automatically refreshed every 10 minutes)

About weather observations | Map of weather stations | Latest weather observations for QLD | Other Formats
Station Details ID: 027075 Name: SCHERGER RAAF Lat: -12.62 Lon: 142.09 Height: 39.34 m
Data from the previous 72 hours. | See also: Recent months at Scherger
Date/Time
EST
Temp
°C
App
Temp
°C
Dew
Point
°C
Rel
Hum
%
Delta-T
°C
Wind Press
QNH
hPa
Press
MSL
hPa
Rain since
9am
mm
Dir  Spd
km/h
Gust
km/h
Spd
kts
Gust
kts
08/11:00pm 25.3 31.2 24.1 93 0.8 CALM 0 0 0 0 1009.3 1009.0 46.0
08/10:30pm 25.4 31.2 24.0 92 1.0 CALM 0 0 0 0 1009.4 1009.1 46.0
08/10:00pm 25.5 31.4 24.1 92 1.0 CALM 0 6 0 3 1009.1 1008.8 46.0
08/09:30pm 25.4 31.2 24.0 92 1.0 CALM 0 0 0 0 1008.6 1008.3 46.0
08/09:00pm 25.2 30.8 23.6 91 1.1 CALM 0 0 0 0 1008.3 1008.0 46.0
08/08:30pm 25.5 31.2 23.7 90 1.2 CALM 0 0 0 0 1008.2 1007.9 46.0
08/08:00pm 25.9 31.6 23.8 88 1.4 CALM 0 0 0 0 1008.1 1007.8 46.0
08/07:30pm 26.0 31.8 23.9 88 1.4 CALM 0 6 0 3 1007.6 1007.3 46.0
08/07:00pm 26.0 31.8 23.9 88 1.4 CALM 0 0 0 0 1007.2 1006.9 46.0
08/06:30pm 26.3 31.3 23.8 86 1.7 S 4 9 2 5 1007.2 1006.9 46.0
08/06:00pm 26.4 30.5 23.9 86 1.7 SSE 9 15 5 8 1007.0 1006.7 46.0
08/05:30pm 26.7 31.5 24.4 87 1.6 S 7 13 4 7 1007.2 1006.9 46.0
08/05:00pm 26.7 30.6 24.2 86 1.7 S 11 20 6 11 1007.1 1006.8 46.0
08/04:30pm 26.7 31.5 24.2 86 1.7 WSW 6 9 3 5 1006.4 1006.1 46.0
08/04:00pm 26.6 31.8 24.8 90 1.3 S 6 11 3 6 1006.4 1006.1 46.0
08/03:30pm 26.0 31.8 24.0 89 1.4 CALM 0 0 0 0 1006.2 1005.9 46.0
08/03:00pm 25.8 31.0 24.2 91 1.1 NNE 4 11 2 6 1006.7 1006.4 46.0
08/02:30pm 25.1 30.2 23.3 90 1.2 N 2 9 1 5 1006.6 1006.3 46.0
08/02:22pm 25.2 30.8 23.6 91 1.1 CALM 0 0 0 0 1006.6 1006.3 46.0
08/02:00pm 24.0 27.0 21.9 88 1.4 NNE 9 15 5 8 1007.2 1006.9 44.0
08/01:39pm 25.1 27.5 22.2 84 1.9 SE 13 28 7 15 1007.9 1007.6 18.8
08/01:30pm 27.2 29.4 22.6 76 3.1 E 15 30 8 16 1007.6 1007.3 4.6
08/01:28pm 28.7 31.4 22.9 71 4.0 ENE 13 26 7 14 1007.4 1007.1 0.8
08/01:00pm 33.7 38.5 25.1 60 6.1 WSW 9 15 5 8 1006.7 1006.4 0.0
08/12:30pm 32.6 37.7 24.6 62 5.6 N 6 11 3 6 1007.3 1007.0 0.0
08/12:00pm 32.5 38.5 24.8 64 5.4 SW 2 9 1 5 1008.0 1007.7 0.0
08/11:30am 31.9 37.5 24.2 63 5.4 NNW 2 7 1 4 1008.6 1008.3 0.0
08/11:00am 31.4 37.4 24.8 68 4.6 ESE 2 9 1 5 1009.4 1009.1 0.0
08/10:30am 30.9 36.0 25.5 73 3.8 ESE 9 17 5 9 1009.7 1009.4 0.0
08/10:00am 30.4 35.8 25.2 74 3.7 ESE 6 11 3 6 1009.9 1009.6 0.0
08/09:30am 29.6 34.8 25.1 77 3.2 ESE 7 15 4 8 1009.6 1009.3 0.0
08/09:00am 29.7 34.9 25.7 79 2.8 ESE 9 15 5 8 1009.5 1009.2 16.2
08/08:30am 28.4 34.0 24.8 81 2.5 SE 4 9 2 5 1009.4 1009.1 16.2
08/08:00am 27.7 32.8 24.7 84 2.1 S 6 11 3 6 1009.6 1009.3 16.2
08/07:30am 26.4 31.9 24.6 90 1.2 S 4 9 2 5 1009.6 1009.3 16.2
08/07:00am 26.3 31.8 24.7 91 1.1 S 4 9 2 5 1009.3 1009.0 16.2
08/06:52am 25.9 30.9 24.5 92 1.0 S 6 9 3 5 1009.3 1009.0 16.2
08/06:30am 25.7 31.5 24.5 93 0.8 SSW 2 9 1 5 1009.3 1009.0 16.2
08/06:00am 25.5 30.4 24.3 93 0.8 SSE 6 11 3 6 1008.9 1008.6 16.2
08/05:30am 25.6 30.7 24.6 94 0.7 SSE 6 9 3 5 1008.4 1008.1 16.2
08/05:00am 25.7 31.5 24.5 93 0.8 SSW 2 9 1 5 1008.2 1007.9 16.2
08/04:30am 25.8 31.6 24.6 93 0.8 S 2 6 1 3 1008.0 1007.7 16.2
08/04:00am 25.8 32.0 24.6 93 0.8 CALM 0 0 0 0 1007.8 1007.5 16.2
08/03:30am 25.7 31.5 24.5 93 0.8 SSW 2 7 1 4 1007.9 1007.6 16.2
08/03:20am 25.6 30.9 24.4 93 0.8 SW 4 9 2 5 1007.9 1007.6 16.2
08/03:00am 25.7 31.3 24.3 92 1.0 SW 2 7 1 4 1007.9 1007.6 16.2
08/02:30am 25.7 31.7 24.3 92 1.0 CALM 0 0 0 0 1008.1 1007.8 16.2
08/02:00am 25.9 31.2 24.3 91 1.1 SW 4 9 2 5 1008.5 1008.2 16.2
08/01:30am 26.0 32.0 24.2 90 1.2 CALM 0 0 0 0 1008.6 1008.3 16.2
08/01:00am 26.1 32.1 24.3 90 1.2 CALM 0 0 0 0 1008.7 1008.4 16.2
08/12:30am 26.1 32.0 24.1 89 1.4 CALM 0 0 0 0 1009.0 1008.7 16.2
08/12:00am 26.2 31.4 24.2 89 1.4 SW 4 9 2 5 1009.3 1009.0 16.2
 
Date/Time
EST
Temp
°C
App
Temp
°C
Dew
Point
°C
Rel
Hum
%
Delta-T
°C
Wind Press
QNH
hPa
Press
MSL
hPa
Rain since
9am
mm
Dir  Spd
km/h
Gust
km/h
Spd
kts
Gust
kts
07/11:30pm 26.3 32.3 24.2 88 1.4 CALM 0 4 0 2 1009.6 1009.3 16.2
07/11:00pm 26.4 32.3 24.1 87 1.6 CALM 0 0 0 0 1009.5 1009.2 16.2
07/10:30pm 26.3 32.3 24.3 89 1.4 CALM 0 0 0 0 1009.5 1009.2 16.2
07/10:00pm 26.4 32.5 24.4 89 1.4 CALM 0 0 0 0 1009.2 1008.9 16.2
07/09:30pm 26.3 32.3 24.2 88 1.4 CALM 0 0 0 0 1009.0 1008.7 16.2
07/09:00pm 26.3 32.3 24.2 88 1.5 CALM 0 0 0 0 1008.7 1008.4 16.2
07/08:30pm 26.2 32.1 24.1 88 1.4 CALM 0 0 0 0 1008.2 1007.9 16.2
07/08:00pm 26.3 31.9 24.2 88 1.5 NE 2 7 1 4 1007.6 1007.3 16.2
07/07:30pm 26.3 31.0 24.0 87 1.6 NW 6 9 3 5 1007.1 1006.8 16.2
07/07:00pm 26.3 32.0 23.8 86 1.7 CALM 0 0 0 0 1007.0 1006.7 16.2
07/06:30pm 26.4 31.1 23.9 86 1.7 N 6 9 3 5 1006.5 1006.2 16.2
07/06:00pm 26.2 31.5 23.7 86 1.7 NW 2 7 1 4 1006.2 1005.9 16.2
07/05:30pm 26.2 31.5 23.7 86 1.7 WNW 2 7 1 4 1005.9 1005.6 16.2
07/05:00pm 25.9 31.4 23.4 86 1.7 CALM 0 2 0 1 1005.7 1005.4 16.2
07/04:30pm 26.0 31.7 23.7 87 1.6 CALM 0 6 0 3 1005.6 1005.3 16.2
07/04:00pm 25.7 29.9 23.2 86 1.7 NW 6 9 3 5 1005.4 1005.1 16.0
07/03:30pm 25.4 27.7 22.1 82 2.2 NNW 13 17 7 9 1005.0 1004.7 15.6
07/03:00pm 26.1 28.6 22.4 80 2.5 E 13 24 7 13 1006.3 1006.0 10.8
07/02:59pm 26.2 28.3 22.5 80 2.5 E 15 24 8 13 1006.3 1006.0 9.4
07/02:30pm 31.2 33.3 22.5 60 5.9 NNE 15 24 8 13 1005.4 1005.1 0.2
07/02:00pm 35.1 38.6 22.1 47 8.9 SSW 7 15 4 8 1005.6 1005.3 0.2
07/01:30pm 35.0 38.0 22.0 46 8.9 SSE 9 17 5 9 1006.1 1005.8 0.2
07/01:00pm 35.0 38.6 23.0 49 8.3 SSE 9 17 5 9 1006.7 1006.4 0.2
07/12:30pm 33.9 38.0 23.0 53 7.5 SSW 6 13 3 7 1007.1 1006.8 0.2
07/12:00pm 33.5 36.8 22.6 53 7.5 S 9 15 5 8 1007.6 1007.3 0.2
07/11:30am 33.5 37.7 23.2 54 7.1 SE 6 15 3 8 1008.1 1007.8 0.2
07/11:00am 32.5 36.6 23.2 58 6.4 SSE 7 15 4 8 1008.5 1008.2 0.2
07/10:30am 31.3 35.5 23.4 63 5.5 E 7 15 4 8 1009.1 1008.8 0.2
07/10:00am 31.0 34.7 23.9 66 4.9 SE 11 17 6 9 1009.5 1009.2 0.2
07/09:30am 30.3 34.6 24.2 70 4.3 SSE 9 15 5 8 1009.8 1009.5 0.2
07/09:00am 29.7 34.2 24.6 74 3.6 SSE 9 13 5 7 1009.6 1009.3 0.2
07/08:30am 29.2 33.8 24.7 76 3.1 S 9 13 5 7 1009.8 1009.5 0.2
07/08:00am 28.7 34.5 24.5 78 2.9 S 2 7 1 4 1009.6 1009.3 0.2
07/07:30am 27.3 33.0 23.7 81 2.5 CALM 0 6 0 3 1009.4 1009.1 0.2
07/07:00am 26.2 31.9 23.7 86 1.7 CALM 0 0 0 0 1009.0 1008.7 0.2
07/06:30am 24.9 30.3 23.3 91 1.1 CALM 0 0 0 0 1008.7 1008.4 0.2
07/06:00am 24.7 30.0 23.1 91 1.1 CALM 0 0 0 0 1008.3 1008.0 0.2
07/05:30am 24.6 29.8 22.8 90 1.2 CALM 0 0 0 0 1008.0 1007.7 0.2
07/05:00am 24.6 29.8 22.8 90 1.2 CALM 0 0 0 0 1007.5 1007.2 0.2
07/04:30am 24.6 29.7 22.7 89 1.3 CALM 0 0 0 0 1007.2 1006.9 0.2
07/04:00am 24.7 29.9 22.8 89 1.3 CALM 0 0 0 0 1007.0 1006.7 0.2
07/03:30am 24.7 29.9 22.9 90 1.2 CALM 0 0 0 0 1006.9 1006.6 0.2
07/03:00am 24.8 30.1 23.0 90 1.2 CALM 0 0 0 0 1007.0 1006.7 0.2
07/02:30am 24.8 30.0 22.9 89 1.3 CALM 0 0 0 0 1006.9 1006.6 0.2
07/02:00am 24.9 30.2 23.0 89 1.3 CALM 0 0 0 0 1007.2 1006.9 0.2
07/01:30am 24.9 30.1 22.8 88 1.4 CALM 0 0 0 0 1007.5 1007.2 0.2
07/01:00am 24.9 30.1 22.8 88 1.4 CALM 0 0 0 0 1007.7 1007.4 0.2
07/12:30am 25.0 30.1 22.7 87 1.6 CALM 0 0 0 0 1008.0 1007.7 0.2
07/12:00am 25.3 30.4 22.6 85 1.8 CALM 0 0 0 0 1008.5 1008.2 0.2
 
Date/Time
EST
Temp
°C
App
Temp
°C
Dew
Point
°C
Rel
Hum
%
Delta-T
°C
Wind Press
QNH
hPa
Press
MSL
hPa
Rain since
9am
mm
Dir  Spd
km/h
Gust
km/h
Spd
kts
Gust
kts
06/11:30pm 25.6 30.4 22.9 85 1.8 NNE 2 7 1 4 1008.6 1008.3 0.2
06/11:00pm 25.8 30.9 23.3 86 1.7 ENE 2 7 1 4 1008.6 1008.3 0.2
06/10:30pm 25.9 31.3 23.2 85 1.8 CALM 0 0 0 0 1008.6 1008.3 0.2
06/10:00pm 26.0 31.1 22.7 82 2.2 CALM 0 0 0 0 1008.7 1008.4 0.2
06/09:30pm 26.2 29.9 22.5 80 2.5 SSE 7 13 4 7 1008.6 1008.3 0.0
06/09:00pm 27.4 31.2 22.4 74 3.4 NE 6 9 3 5 1008.0 1007.7 0.0
06/08:30pm 28.1 31.3 21.6 68 4.4 NNE 7 11 4 6 1007.5 1007.2 0.0
06/08:00pm 28.9 31.3 20.9 62 5.3 N 9 13 5 7 1006.8 1006.5 0.0
06/07:30pm 29.9 33.2 20.7 57 6.1 NNW 4 9 2 5 1006.2 1005.9 0.0
06/07:00pm 30.9 33.6 20.2 53 7.1 W 6 11 3 6 1005.9 1005.6 0.0
06/06:30pm 31.3 34.0 20.3 52 7.3 W 6 13 3 7 1005.7 1005.4 0.0
06/06:00pm 31.7 32.7 20.3 50 7.6 WSW 15 22 8 12 1005.2 1004.9 0.0
06/05:30pm 32.9 34.3 20.4 47 8.3 WSW 13 20 7 11 1004.7 1004.4 0.0
06/05:00pm 33.7 35.3 20.8 46 8.7 WSW 13 19 7 10 1004.5 1004.2 0.0
06/04:30pm 34.2 35.7 21.3 47 8.7 WSW 15 20 8 11 1004.3 1004.0 0.0
06/04:00pm 34.2 35.7 20.6 45 9.2 SW 13 20 7 11 1004.0 1003.7 0.0
06/03:30pm 34.6 36.5 19.0 39 10.3 SW 7 17 4 9 1004.3 1004.0 0.0
06/03:00pm 34.4 35.7 19.2 40 10.1 SSW 11 20 6 11 1004.6 1004.3 0.0
06/02:30pm 33.8 35.2 18.7 40 9.9 SSW 9 17 5 9 1004.9 1004.6 0.0
06/02:00pm 34.0 35.5 18.9 41 9.9 S 9 22 5 12 1005.3 1005.0 0.0
06/01:30pm 33.8 35.0 18.3 39 10.1 ESE 9 20 5 11 1005.8 1005.5 0.0
06/01:00pm 34.2 35.8 19.1 41 10.0 SSE 9 20 5 11 1006.2 1005.9 0.0
06/12:30pm 34.1 35.6 19.0 41 9.9 SSW 9 13 5 7 1006.8 1006.5 0.0
06/12:00pm 32.9 35.7 20.8 49 8.1 S 7 15 4 8 1007.4 1007.1 0.0
06/11:30am 32.5 34.8 20.7 49 7.9 ESE 9 17 5 9 1008.0 1007.7 0.0
06/11:00am 32.1 34.8 21.3 53 7.3 E 9 15 5 8 1008.2 1007.9 0.0
06/10:30am 31.7 34.3 21.2 53 7.1 E 9 17 5 9 1008.4 1008.1 0.0
06/10:00am 30.8 33.5 21.3 57 6.4 SE 9 17 5 9 1008.6 1008.3 0.0
06/09:30am 30.3 33.2 21.7 60 5.8 ESE 9 15 5 8 1008.6 1008.3 0.0
06/09:00am 29.6 32.4 22.3 65 5.0 SE 11 17 6 9 1008.7 1008.4 0.0
06/08:30am 28.6 31.7 22.8 71 4.0 SSE 11 15 6 8 1008.8 1008.5 0.0
06/08:00am 27.8 31.5 22.5 73 3.6 S 7 11 4 6 1008.5 1008.2 0.0
06/07:30am 27.0 30.6 22.4 76 3.1 SSE 7 11 4 6 1008.1 1007.8 0.0
06/07:00am 25.7 30.2 22.2 81 2.4 S 2 9 1 5 1007.9 1007.6 0.0
06/06:30am 24.7 29.3 21.8 84 1.9 CALM 0 0 0 0 1007.9 1007.6 0.0
06/06:00am 24.3 28.8 21.6 85 1.8 CALM 0 0 0 0 1007.5 1007.2 0.0
06/05:30am 24.3 28.8 21.6 85 1.8 CALM 0 0 0 0 1007.3 1007.0 0.0
06/05:00am 24.5 29.1 21.8 85 1.8 CALM 0 0 0 0 1007.0 1006.7 0.0
06/04:30am 24.6 29.1 21.5 83 2.1 CALM 0 0 0 0 1007.0 1006.7 0.0
06/04:00am 24.6 29.1 21.5 83 2.1 CALM 0 0 0 0 1006.7 1006.4 0.0
06/03:30am 24.7 29.0 21.2 81 2.3 CALM 0 0 0 0 1006.6 1006.3 0.0
06/03:00am 25.1 29.5 21.4 80 2.5 CALM 0 0 0 0 1006.5 1006.2 0.0
06/02:30am 25.4 29.7 21.1 77 2.8 CALM 0 0 0 0 1006.6 1006.3 0.0
06/02:00am 25.7 30.0 21.1 76 3.0 CALM 0 0 0 0 1006.9 1006.6 0.0
06/01:30am 25.8 30.0 21.0 75 3.2 CALM 0 0 0 0 1007.2 1006.9 0.0
06/01:00am 26.0 30.2 21.0 74 3.3 CALM 0 0 0 0 1007.5 1007.2 0.0
06/12:30am 26.1 30.0 20.4 71 3.7 CALM 0 0 0 0 1007.5 1007.2 0.0
06/12:00am 26.7 30.8 20.8 70 3.9 CALM 0 6 0 3 1007.8 1007.5 0.0
 
Date/Time
EST
Temp
°C
App
Temp
°C
Dew
Point
°C
Rel
Hum
%
Delta-T
°C
Wind Press
QNH
hPa
Press
MSL
hPa
Rain since
9am
mm
Dir  Spd
km/h
Gust
km/h
Spd
kts
Gust
kts
05/11:30pm 26.6 30.5 21.1 72 3.6 SE 2 7 1 4 1007.8 1007.5 0.0

Other formats

Comma delimited format used in spreadsheet applications
http://www.bom.gov.au/fwo/IDQ60801/IDQ60801.94171.axf

JavaScript Object Notation format (JSON) in row-major order
http://www.bom.gov.au/fwo/IDQ60801/IDQ60801.94171.json

Data quality

Most of these data are generated automatically and are frequently updated. Quality checks on data are not normally performed. It is possible for incorrect values to appear. Refer to information at About Latest Weather Observations and please check the disclaimer before using these data.